createdAt,value
2023-04-30T00:02:13.461Z,93811.63
2023-04-30T00:04:40.321Z,93809.91
2023-04-30T00:07:06.995Z,93812.09
2023-04-30T00:09:33.573Z,93813.94
2023-04-30T00:12:00.231Z,93808.94
2023-04-30T00:14:26.812Z,93814.34
2023-04-30T00:16:53.516Z,93811.13
2023-04-30T00:19:20.081Z,93811.25
2023-04-30T00:21:46.957Z,93813.22
2023-04-30T00:24:13.572Z,93805.91
2023-04-30T00:26:40.275Z,93806.19
2023-04-30T00:29:07.055Z,93814.34
2023-04-30T00:31:33.731Z,93805.25
2023-04-30T00:34:00.440Z,93810.91
2023-04-30T00:36:27.039Z,93812.72
2023-04-30T00:38:53.684Z,93819.31
2023-04-30T00:41:22.693Z,93807.75
2023-04-30T00:43:49.282Z,93809.38
2023-04-30T00:46:16.034Z,93808.66
2023-04-30T00:48:42.778Z,93807.66
2023-04-30T00:51:09.572Z,93802.25
2023-04-30T00:53:38.439Z,93800.34
2023-04-30T00:56:06.508Z,93803.84
2023-04-30T00:58:34.210Z,93801.38
2023-04-30T01:01:02.918Z,93807.47
2023-04-30T01:03:29.647Z,93805.75
2023-04-30T01:05:56.594Z,93794.00
2023-04-30T01:08:23.457Z,93792.56
2023-04-30T01:11:13.508Z,93792.91
2023-04-30T01:13:53.635Z,93788.72
2023-04-30T01:16:27.142Z,93790.66
2023-04-30T01:19:18.522Z,93788.91
2023-04-30T01:21:46.079Z,93793.25
2023-04-30T01:24:35.862Z,93792.75
2023-04-30T01:27:17.628Z,93794.72
2023-04-30T01:29:44.337Z,93798.00
2023-04-30T01:32:11.611Z,93794.69
2023-04-30T01:34:38.396Z,93796.66
2023-04-30T01:37:15.524Z,93806.38
2023-04-30T01:40:23.894Z,93791.00
2023-04-30T01:43:08.935Z,93795.75
2023-04-30T01:46:12.543Z,93800.53
2023-04-30T01:48:56.100Z,93800.50
2023-04-30T01:51:43.526Z,93800.66
2023-04-30T01:54:45.368Z,93808.38
2023-04-30T01:57:18.394Z,93799.69
2023-04-30T01:59:46.353Z,93804.72
2023-04-30T02:02:12.915Z,93806.84
2023-04-30T02:04:39.496Z,93804.53
2023-04-30T02:07:06.120Z,93806.59
2023-04-30T02:09:32.725Z,93803.31
2023-04-30T02:11:59.307Z,93804.13
2023-04-30T02:14:25.929Z,93803.25
2023-04-30T02:16:52.541Z,93805.28
2023-04-30T02:19:19.124Z,93793.16
2023-04-30T02:21:45.837Z,93797.53
2023-04-30T02:24:12.499Z,93799.75
2023-04-30T02:26:39.081Z,93806.53
2023-04-30T02:29:05.676Z,93797.53
2023-04-30T02:31:32.337Z,93802.56
2023-04-30T02:33:59.078Z,93803.34
2023-04-30T02:36:25.739Z,93796.47
2023-04-30T02:38:52.334Z,93793.03
2023-04-30T02:41:19.000Z,93796.53
2023-04-30T02:43:45.588Z,93802.22
2023-04-30T02:46:12.219Z,93802.03
2023-04-30T02:48:38.823Z,93803.72
2023-04-30T02:51:05.741Z,93801.78
2023-04-30T02:53:32.414Z,93799.50
2023-04-30T02:55:59.313Z,93805.06
2023-04-30T02:58:26.680Z,93800.75
2023-04-30T03:00:53.339Z,93808.88
2023-04-30T03:03:20.174Z,93810.69
2023-04-30T03:05:46.952Z,93815.22
2023-04-30T03:08:13.746Z,93816.97
2023-04-30T03:10:40.645Z,93813.13
2023-04-30T03:13:07.269Z,93813.44
2023-04-30T03:15:33.954Z,93813.00
2023-04-30T03:18:00.623Z,93815.34
2023-04-30T03:20:27.245Z,93819.19
2023-04-30T03:22:53.908Z,93819.19
2023-04-30T03:25:20.611Z,93819.28
2023-04-30T03:27:47.220Z,93823.91
2023-04-30T03:30:14.036Z,93823.94
2023-04-30T03:32:40.837Z,93819.84
2023-04-30T03:35:08.804Z,93821.16
2023-04-30T03:37:35.419Z,93818.41
2023-04-30T03:40:03.313Z,93834.25
2023-04-30T03:42:29.907Z,93829.78
2023-04-30T03:44:56.505Z,93835.16
2023-04-30T03:47:23.110Z,93839.09
2023-04-30T03:49:55.545Z,93843.19
2023-04-30T03:52:22.818Z,93846.06
2023-04-30T03:54:49.409Z,93844.47
2023-04-30T03:57:16.156Z,93843.09
2023-04-30T03:59:43.352Z,93850.09
2023-04-30T04:02:10.036Z,93841.25
2023-04-30T04:04:36.776Z,93840.78
2023-04-30T04:07:03.916Z,93849.13
2023-04-30T04:09:30.780Z,93851.88
2023-04-30T04:11:57.981Z,93853.63
2023-04-30T04:14:24.757Z,93860.75
2023-04-30T04:16:51.700Z,93855.69
2023-04-30T04:19:18.329Z,93857.72
2023-04-30T04:21:45.174Z,93855.94
2023-04-30T04:24:12.516Z,93858.25
2023-04-30T04:26:39.276Z,93861.03
2023-04-30T04:29:06.022Z,93857.44
2023-04-30T04:31:32.847Z,93858.78
2023-04-30T04:34:00.997Z,93865.03
2023-04-30T04:36:28.856Z,93861.84
2023-04-30T04:38:57.725Z,93870.47
2023-04-30T04:41:25.447Z,93870.47
2023-04-30T04:43:52.895Z,93870.19
2023-04-30T04:46:20.918Z,93873.09
2023-04-30T04:48:47.650Z,93868.66
2023-04-30T04:51:14.294Z,93881.09
2023-04-30T04:53:41.102Z,93870.00
2023-04-30T04:56:08.393Z,93880.47
2023-04-30T04:58:35.521Z,93879.97
2023-04-30T05:01:02.677Z,93881.69
2023-04-30T05:03:31.534Z,93878.47
2023-04-30T05:05:59.019Z,93880.88
2023-04-30T05:08:25.811Z,93884.63
2023-04-30T05:10:52.393Z,93879.63
2023-04-30T05:13:18.971Z,93876.19
2023-04-30T05:15:45.728Z,93880.34
2023-04-30T05:18:12.397Z,93885.22
2023-04-30T05:20:39.025Z,93886.41
2023-04-30T05:23:05.759Z,93883.28
2023-04-30T05:25:32.495Z,93884.44
2023-04-30T05:27:59.095Z,93883.97
2023-04-30T05:30:25.708Z,93885.88
2023-04-30T05:32:52.748Z,93888.81
2023-04-30T05:35:19.857Z,93882.13
2023-04-30T05:37:46.575Z,93881.00
2023-04-30T05:40:13.923Z,93889.50
2023-04-30T05:42:40.986Z,93886.78
2023-04-30T05:45:08.487Z,93882.69
2023-04-30T05:47:35.103Z,93880.16
2023-04-30T05:50:01.682Z,93891.41
2023-04-30T05:52:28.348Z,93881.56
2023-04-30T05:54:54.945Z,93883.03
2023-04-30T05:57:22.341Z,93884.53
2023-04-30T05:59:49.034Z,93890.56
2023-04-30T06:02:15.823Z,93894.84
2023-04-30T06:04:42.805Z,93901.75
2023-04-30T06:07:09.570Z,93888.53
2023-04-30T06:09:36.185Z,93897.41
2023-04-30T06:12:03.922Z,93909.75
2023-04-30T06:14:30.847Z,93901.28
2023-04-30T06:16:57.733Z,93899.41
2023-04-30T06:19:24.442Z,93902.81
2023-04-30T06:21:51.035Z,93905.69
2023-04-30T06:24:17.638Z,93901.31
2023-04-30T06:26:44.186Z,93902.19
2023-04-30T06:29:10.827Z,93899.91
2023-04-30T06:31:37.508Z,93902.13
2023-04-30T06:34:04.159Z,93905.97
2023-04-30T06:36:31.662Z,93910.19
2023-04-30T06:38:58.289Z,93912.75
2023-04-30T06:41:24.921Z,93913.00
2023-04-30T06:43:51.520Z,93908.66
2023-04-30T06:46:18.290Z,93904.31
2023-04-30T06:48:45.021Z,93916.78
2023-04-30T06:51:11.580Z,93914.06
2023-04-30T06:53:38.433Z,93915.28
2023-04-30T06:56:05.520Z,93921.38
2023-04-30T06:58:32.659Z,93909.66
2023-04-30T07:00:59.249Z,93913.13
2023-04-30T07:03:26.157Z,93906.59
2023-04-30T07:05:54.169Z,93913.16
2023-04-30T07:08:21.947Z,93916.63
2023-04-30T07:10:48.570Z,93910.09
2023-04-30T07:13:15.205Z,93920.13
2023-04-30T07:15:42.318Z,93904.72
2023-04-30T07:18:10.316Z,93913.97
2023-04-30T07:20:37.170Z,93917.41
2023-04-30T07:23:03.802Z,93913.16
2023-04-30T07:25:30.644Z,93916.63
2023-04-30T07:27:57.305Z,93913.94
2023-04-30T07:30:25.238Z,93908.91
2023-04-30T07:32:52.200Z,93908.06
2023-04-30T07:35:21.878Z,93912.28
2023-04-30T07:37:48.486Z,93926.94
2023-04-30T07:40:21.977Z,93923.56
2023-04-30T07:42:55.467Z,93923.19
2023-04-30T07:45:22.069Z,93910.06
2023-04-30T07:47:48.857Z,93923.56
2023-04-30T07:50:16.372Z,93930.13
2023-04-30T07:52:43.108Z,93922.06
2023-04-30T07:55:10.404Z,93938.25
2023-04-30T07:57:37.081Z,93934.38
2023-04-30T08:00:04.371Z,93933.59
2023-04-30T08:02:31.233Z,93931.31
2023-04-30T08:04:58.091Z,93927.84
2023-04-30T08:07:25.564Z,93928.56
2023-04-30T08:09:52.249Z,93937.84
2023-04-30T08:12:19.161Z,93935.94
2023-04-30T08:14:45.780Z,93933.56
2023-04-30T08:17:12.516Z,93938.94
2023-04-30T08:19:39.105Z,93940.47
2023-04-30T08:22:05.949Z,93941.63
2023-04-30T08:24:32.601Z,93939.34
2023-04-30T08:27:01.013Z,93939.34
2023-04-30T08:29:27.892Z,93937.44
2023-04-30T08:31:54.533Z,93935.50
2023-04-30T08:34:21.311Z,93932.44
2023-04-30T08:36:47.959Z,93942.88
2023-04-30T08:39:14.532Z,93940.13
2023-04-30T08:41:46.974Z,93934.13
2023-04-30T08:44:14.434Z,93929.97
2023-04-30T08:46:42.282Z,93926.16
2023-04-30T08:49:09.101Z,93923.28
2023-04-30T08:51:36.014Z,93929.50
2023-04-30T08:54:02.713Z,93924.13
2023-04-30T08:56:31.514Z,93917.00
2023-04-30T08:58:58.233Z,93915.59
2023-04-30T09:01:25.826Z,93908.72
2023-04-30T09:03:52.613Z,93906.38
2023-04-30T09:06:19.407Z,93905.25
2023-04-30T09:08:49.952Z,93907.34
2023-04-30T09:11:30.823Z,93893.66
2023-04-30T09:14:02.036Z,93906.91
2023-04-30T09:16:33.130Z,93891.66
2023-04-30T09:19:00.064Z,93892.97
2023-04-30T09:21:36.852Z,93889.25
2023-04-30T09:24:05.535Z,93890.50
2023-04-30T09:26:34.926Z,93882.78
2023-04-30T09:29:07.714Z,93881.88
2023-04-30T09:31:38.953Z,93876.16
2023-04-30T09:34:06.299Z,93871.31
2023-04-30T09:36:33.706Z,93869.84
2023-04-30T09:39:17.646Z,93869.97
2023-04-30T09:41:44.712Z,93869.44
2023-04-30T09:44:35.779Z,93852.66
2023-04-30T09:47:03.554Z,93851.88
2023-04-30T09:49:30.593Z,93855.91
2023-04-30T09:52:01.861Z,93866.75
2023-04-30T09:54:30.043Z,93847.88
2023-04-30T09:56:58.682Z,93853.22
2023-04-30T09:59:36.767Z,93854.81
2023-04-30T10:02:05.294Z,93863.19
2023-04-30T10:04:41.140Z,93848.88
2023-04-30T10:07:21.755Z,93849.50
2023-04-30T10:09:52.163Z,93854.88
2023-04-30T10:12:24.511Z,93861.91
2023-04-30T10:15:10.009Z,93853.69
2023-04-30T10:17:41.209Z,93849.06
2023-04-30T10:20:10.149Z,93855.75
2023-04-30T10:22:37.115Z,93874.13
2023-04-30T10:25:04.028Z,93883.28
2023-04-30T10:27:30.741Z,93883.50
2023-04-30T10:29:59.494Z,93908.91
2023-04-30T10:32:38.823Z,93917.78
2023-04-30T10:35:15.448Z,93918.84
2023-04-30T10:37:54.085Z,93915.88
2023-04-30T10:40:20.970Z,93907.00
2023-04-30T10:42:49.723Z,93900.09
2023-04-30T10:45:17.403Z,93889.53
2023-04-30T10:47:47.423Z,93884.97
2023-04-30T10:50:14.368Z,93880.03
2023-04-30T10:52:41.116Z,93880.38
2023-04-30T10:55:09.141Z,93872.03
2023-04-30T10:57:43.747Z,93870.03
2023-04-30T11:00:10.540Z,93874.00
2023-04-30T11:02:43.878Z,93871.78
2023-04-30T11:05:18.890Z,93856.59
2023-04-30T11:07:50.560Z,93869.78
2023-04-30T11:10:21.398Z,93870.56
2023-04-30T11:12:49.390Z,93871.28
2023-04-30T11:15:18.387Z,93865.94
2023-04-30T11:17:46.240Z,93849.66
2023-04-30T11:20:14.954Z,93848.81
2023-04-30T11:22:41.726Z,93854.47
2023-04-30T11:25:15.922Z,93844.13
2023-04-30T11:27:45.114Z,93857.81
2023-04-30T11:30:15.338Z,93859.59
2023-04-30T11:32:46.315Z,93859.13
2023-04-30T11:35:14.276Z,93853.47
2023-04-30T11:37:45.721Z,93854.63
2023-04-30T11:40:14.557Z,93854.50
2023-04-30T11:42:47.015Z,93847.28
2023-04-30T11:45:21.017Z,93849.47
2023-04-30T11:47:50.566Z,93839.72
2023-04-30T11:50:19.463Z,93843.88
2023-04-30T11:52:50.762Z,93842.25
2023-04-30T11:55:19.946Z,93834.88
2023-04-30T11:57:50.191Z,93835.66
2023-04-30T12:00:19.899Z,93835.66
2023-04-30T12:02:49.284Z,93830.44
2023-04-30T12:05:20.606Z,93833.03
2023-04-30T12:07:52.015Z,93817.16
2023-04-30T12:10:22.400Z,93817.09
2023-04-30T12:12:51.995Z,93831.69
2023-04-30T12:15:23.394Z,93828.50
2023-04-30T12:17:50.131Z,93836.91
2023-04-30T12:20:17.094Z,93844.88
2023-04-30T12:22:44.430Z,93847.66
2023-04-30T12:25:19.715Z,93851.91
2023-04-30T12:27:51.562Z,93853.41
2023-04-30T12:30:26.832Z,93878.25
2023-04-30T12:32:56.628Z,93879.25
2023-04-30T12:35:24.957Z,93884.16
2023-04-30T12:37:54.349Z,93879.88
2023-04-30T12:40:22.388Z,93884.75
2023-04-30T12:42:49.051Z,93881.69
2023-04-30T12:45:48.219Z,93880.97
2023-04-30T12:48:16.232Z,93879.41
2023-04-30T12:50:47.319Z,93888.13
2023-04-30T12:53:14.078Z,93883.22
2023-04-30T12:55:40.740Z,93886.22
2023-04-30T12:58:10.029Z,93882.75
2023-04-30T13:01:02.835Z,93885.25
2023-04-30T13:03:29.766Z,93876.94
2023-04-30T13:05:56.484Z,93868.34
2023-04-30T13:08:23.684Z,93868.84
2023-04-30T13:10:50.492Z,93871.53
2023-04-30T13:13:18.704Z,93862.59
2023-04-30T13:15:45.481Z,93861.25
2023-04-30T13:18:12.375Z,93855.22
2023-04-30T13:20:39.452Z,93834.97
2023-04-30T13:23:06.938Z,93838.00
2023-04-30T13:25:35.209Z,93828.47
2023-04-30T13:28:02.054Z,93825.06
2023-04-30T13:30:29.111Z,93820.09
2023-04-30T13:32:55.897Z,93821.91
2023-04-30T13:35:22.915Z,93814.03
2023-04-30T13:37:52.359Z,93813.03
2023-04-30T13:40:20.056Z,93818.13
2023-04-30T13:42:48.301Z,93809.97
2023-04-30T13:45:15.318Z,93815.91
2023-04-30T13:47:41.941Z,93821.25
2023-04-30T13:50:09.707Z,93826.00
2023-04-30T13:52:36.292Z,93819.13
2023-04-30T13:55:04.852Z,93814.16
2023-04-30T13:57:33.383Z,93817.53
2023-04-30T14:00:00.469Z,93814.06
2023-04-30T14:02:30.344Z,93823.81
2023-04-30T14:05:05.949Z,93809.38
2023-04-30T14:07:33.477Z,93814.03
2023-04-30T14:10:00.201Z,93806.75
2023-04-30T14:12:26.866Z,93803.50
2023-04-30T14:14:53.647Z,93806.78
2023-04-30T14:17:20.643Z,93809.00
2023-04-30T14:19:47.521Z,93807.72
2023-04-30T14:22:14.385Z,93808.00
2023-04-30T14:24:41.234Z,93804.91
2023-04-30T14:27:08.057Z,93805.78
2023-04-30T14:29:34.882Z,93798.91
2023-04-30T14:32:02.040Z,93803.72
2023-04-30T14:34:28.857Z,93796.38
2023-04-30T14:36:55.854Z,93794.88
2023-04-30T14:39:22.407Z,93790.56
2023-04-30T14:41:49.033Z,93781.97
2023-04-30T14:44:15.650Z,93787.56
2023-04-30T14:46:42.421Z,93795.94
2023-04-30T14:49:09.104Z,93790.63
2023-04-30T14:51:36.038Z,93785.38
2023-04-30T14:54:02.904Z,93790.28
2023-04-30T14:56:29.581Z,93794.22
2023-04-30T14:58:56.307Z,93793.97
2023-04-30T15:01:23.050Z,93790.88
2023-04-30T15:03:49.808Z,93793.78
2023-04-30T15:06:16.701Z,93798.59
2023-04-30T15:08:43.698Z,93801.69
2023-04-30T15:11:10.807Z,93794.00
2023-04-30T15:13:37.786Z,93801.13
2023-04-30T15:16:05.250Z,93799.56
2023-04-30T15:18:33.185Z,93804.22
2023-04-30T15:20:59.868Z,93803.41
2023-04-30T15:23:27.006Z,93811.50
2023-04-30T15:25:53.757Z,93809.97
2023-04-30T15:28:20.972Z,93814.41
2023-04-30T15:30:47.651Z,93817.41
2023-04-30T15:33:14.279Z,93809.59
2023-04-30T15:35:41.703Z,93810.06
2023-04-30T15:38:08.288Z,93804.34
2023-04-30T15:40:36.593Z,93802.34
2023-04-30T15:43:04.812Z,93804.13
2023-04-30T15:45:33.626Z,93803.75
2023-04-30T15:48:03.256Z,93804.63
2023-04-30T15:50:29.999Z,93801.16
2023-04-30T15:52:56.844Z,93811.25
2023-04-30T15:55:23.970Z,93802.19
2023-04-30T15:57:50.733Z,93810.19
2023-04-30T16:00:18.614Z,93805.44
2023-04-30T16:02:45.338Z,93793.88
2023-04-30T16:05:12.411Z,93797.00
2023-04-30T16:07:40.768Z,93800.75
2023-04-30T16:10:10.459Z,93807.66
2023-04-30T16:12:37.490Z,93809.56
2023-04-30T16:15:07.277Z,93811.84
2023-04-30T16:17:34.011Z,93811.06
2023-04-30T16:20:01.555Z,93811.34
2023-04-30T16:22:28.418Z,93814.69
2023-04-30T16:24:55.125Z,93810.88
2023-04-30T16:27:21.709Z,93814.78
2023-04-30T16:29:48.376Z,93817.28
2023-04-30T16:32:15.294Z,93816.13
2023-04-30T16:34:42.123Z,93815.19
2023-04-30T16:37:09.452Z,93819.13
2023-04-30T16:39:36.130Z,93814.03
2023-04-30T16:42:02.906Z,93817.75
2023-04-30T16:44:29.519Z,93814.41
2023-04-30T16:46:59.538Z,93820.56
2023-04-30T16:49:26.212Z,93817.03
2023-04-30T16:51:52.817Z,93826.47
2023-04-30T16:54:19.446Z,93825.06
2023-04-30T16:56:47.003Z,93827.81
2023-04-30T16:59:13.640Z,93829.00
2023-04-30T17:01:40.395Z,93823.66
2023-04-30T17:04:07.155Z,93829.66
2023-04-30T17:06:35.520Z,93832.41
2023-04-30T17:09:02.370Z,93835.53
2023-04-30T17:11:29.166Z,93835.00
2023-04-30T17:13:55.849Z,93842.56
2023-04-30T17:16:22.531Z,93841.69
2023-04-30T17:18:49.436Z,93852.72
2023-04-30T17:21:16.143Z,93853.63
2023-04-30T17:23:42.826Z,93853.91
2023-04-30T17:26:09.836Z,93856.19
2023-04-30T17:28:38.337Z,93862.69
2023-04-30T17:31:07.161Z,93857.19
2023-04-30T17:33:34.197Z,93869.78
2023-04-30T17:36:00.929Z,93874.81
2023-04-30T17:38:28.286Z,93865.88
2023-04-30T17:40:56.783Z,93876.69
2023-04-30T17:43:24.024Z,93886.00
2023-04-30T17:45:54.905Z,93886.81
2023-04-30T17:48:22.268Z,93886.41
2023-04-30T17:50:51.971Z,93893.53
2023-04-30T17:53:18.706Z,93894.75
2023-04-30T17:55:45.593Z,93891.75
2023-04-30T17:58:12.363Z,93896.81
2023-04-30T18:00:40.500Z,93895.59
2023-04-30T18:03:07.491Z,93904.72
2023-04-30T18:05:35.680Z,93906.16
2023-04-30T18:08:03.053Z,93909.47
2023-04-30T18:10:29.658Z,93913.59
2023-04-30T18:12:59.165Z,93924.47
2023-04-30T18:15:26.848Z,93920.22
2023-04-30T18:17:53.552Z,93928.72
2023-04-30T18:20:23.287Z,93920.66
2023-04-30T18:22:50.076Z,93933.41
2023-04-30T18:25:18.864Z,93935.69
2023-04-30T18:27:45.637Z,93944.63
2023-04-30T18:30:13.913Z,93952.69
2023-04-30T18:32:42.042Z,93947.72
2023-04-30T18:35:09.178Z,93955.41
2023-04-30T18:37:35.842Z,93956.63
2023-04-30T18:40:02.644Z,93962.75
2023-04-30T18:42:30.236Z,93956.56
2023-04-30T18:44:57.342Z,93965.81
2023-04-30T18:47:24.815Z,93963.19
2023-04-30T18:49:51.549Z,93975.13
2023-04-30T18:52:18.229Z,93969.81
2023-04-30T18:54:44.917Z,93970.16
2023-04-30T18:57:14.917Z,93977.13
2023-04-30T18:59:41.700Z,93969.44
2023-04-30T19:02:09.591Z,93969.00
2023-04-30T19:04:36.740Z,93980.94
2023-04-30T19:07:04.142Z,93976.75
2023-04-30T19:09:30.808Z,93979.75
2023-04-30T19:11:57.995Z,93977.88
2023-04-30T19:14:24.653Z,93978.28
2023-04-30T19:16:51.439Z,93989.84
2023-04-30T19:19:18.106Z,93980.63
2023-04-30T19:21:44.711Z,93987.94
2023-04-30T19:24:11.422Z,93996.41
2023-04-30T19:26:38.149Z,93986.38
2023-04-30T19:29:04.936Z,93997.13
2023-04-30T19:31:31.636Z,93995.97
2023-04-30T19:34:01.168Z,93999.81
2023-04-30T19:36:28.397Z,93997.47
2023-04-30T19:38:55.757Z,93995.91
2023-04-30T19:41:22.516Z,94001.31
2023-04-30T19:43:49.272Z,94004.06
2023-04-30T19:46:16.254Z,94004.88
2023-04-30T19:48:44.606Z,94008.75
2023-04-30T19:51:11.325Z,94017.22
2023-04-30T19:53:38.128Z,94012.22
2023-04-30T19:56:04.772Z,94022.97
2023-04-30T19:58:31.417Z,94015.28
2023-04-30T20:00:58.081Z,94018.97
2023-04-30T20:03:25.506Z,94031.16
2023-04-30T20:05:52.494Z,94035.78
2023-04-30T20:08:19.287Z,94023.25
2023-04-30T20:10:47.923Z,94025.59
2023-04-30T20:13:15.872Z,94022.59
2023-04-30T20:15:42.982Z,94019.09
2023-04-30T20:18:09.940Z,94032.44
2023-04-30T20:20:37.019Z,94024.47
2023-04-30T20:23:15.468Z,94022.97
2023-04-30T20:25:45.238Z,94030.66
2023-04-30T20:28:13.291Z,94025.69
2023-04-30T20:30:43.119Z,94029.53
2023-04-30T20:33:13.939Z,94035.63
2023-04-30T20:35:46.256Z,94033.38
2023-04-30T20:38:14.071Z,94041.06
2023-04-30T20:40:41.166Z,94049.03
2023-04-30T20:43:12.851Z,94041.72
2023-04-30T20:45:42.513Z,94047.50
2023-04-30T20:48:09.641Z,94049.06
2023-04-30T20:50:37.355Z,94058.75
2023-04-30T20:53:04.054Z,94056.03
2023-04-30T20:55:30.981Z,94066.47
2023-04-30T20:57:57.689Z,94051.91
2023-04-30T21:00:24.439Z,94057.28
2023-04-30T21:02:52.800Z,94058.94
2023-04-30T21:05:19.745Z,94052.88
2023-04-30T21:07:46.449Z,94062.53
2023-04-30T21:10:13.174Z,94075.25
2023-04-30T21:12:39.950Z,94069.81
2023-04-30T21:15:07.572Z,94068.66
2023-04-30T21:17:34.256Z,94072.31
2023-04-30T21:20:01.027Z,94075.03
2023-04-30T21:22:27.836Z,94083.38
2023-04-30T21:24:54.516Z,94090.56
2023-04-30T21:27:22.117Z,94092.88
2023-04-30T21:29:48.993Z,94090.59
2023-04-30T21:32:15.982Z,94092.16
2023-04-30T21:34:44.062Z,94089.16
2023-04-30T21:37:10.796Z,94090.41
2023-04-30T21:39:37.522Z,94087.88
2023-04-30T21:42:04.659Z,94085.13
2023-04-30T21:44:36.152Z,94089.16
2023-04-30T21:47:03.727Z,94092.53
2023-04-30T21:49:31.299Z,94096.13
2023-04-30T21:51:58.186Z,94090.75
2023-04-30T21:54:24.915Z,94084.09
2023-04-30T21:56:51.634Z,94083.41
2023-04-30T21:59:18.371Z,94083.50
2023-04-30T22:01:45.153Z,94091.31
2023-04-30T22:04:11.883Z,94096.00
2023-04-30T22:06:38.702Z,94093.75
2023-04-30T22:09:05.376Z,94091.44
2023-04-30T22:11:32.055Z,94083.34
2023-04-30T22:13:58.993Z,94097.53
2023-04-30T22:16:25.738Z,94102.66
2023-04-30T22:18:52.501Z,94098.13
2023-04-30T22:21:19.164Z,94102.25
2023-04-30T22:23:46.060Z,94093.13
2023-04-30T22:26:12.665Z,94093.19
2023-04-30T22:28:39.344Z,94093.13
2023-04-30T22:31:06.047Z,94094.13
2023-04-30T22:33:37.133Z,94095.75
2023-04-30T22:36:08.197Z,94095.03
2023-04-30T22:38:35.476Z,94091.03
2023-04-30T22:41:03.974Z,94095.09
2023-04-30T22:43:31.258Z,94105.69
2023-04-30T22:45:58.772Z,94099.06
2023-04-30T22:48:26.931Z,94096.19
2023-04-30T22:50:54.001Z,94089.25
2023-04-30T22:53:20.911Z,94094.25
2023-04-30T22:55:48.010Z,94089.16
2023-04-30T22:58:14.782Z,94094.00
2023-04-30T23:00:41.809Z,94090.72
2023-04-30T23:03:08.685Z,94088.91
2023-04-30T23:05:35.511Z,94085.06
2023-04-30T23:08:02.317Z,94086.63
2023-04-30T23:10:29.011Z,94084.41
2023-04-30T23:12:56.657Z,94091.31
2023-04-30T23:15:23.399Z,94094.91
2023-04-30T23:17:50.362Z,94087.31
2023-04-30T23:20:17.768Z,94095.03
2023-04-30T23:22:44.721Z,94090.31
2023-04-30T23:25:12.183Z,94094.84
2023-04-30T23:27:38.816Z,94093.28
2023-04-30T23:30:06.245Z,94085.13
2023-04-30T23:32:33.470Z,94088.59
2023-04-30T23:35:00.203Z,94091.69
2023-04-30T23:37:27.254Z,94093.59
2023-04-30T23:39:54.523Z,94089.69
2023-04-30T23:42:21.420Z,94088.56
2023-04-30T23:44:48.083Z,94083.50
2023-04-30T23:47:14.689Z,94082.50
2023-04-30T23:49:41.900Z,94086.84
2023-04-30T23:52:09.222Z,94087.78
2023-04-30T23:54:35.864Z,94092.50
2023-04-30T23:57:02.520Z,94091.41
2023-04-30T23:59:29.264Z,94095.69
